createdAt,value
2022-08-03T04:05:18.315Z,21.49
2022-08-03T04:08:39.937Z,21.49
2022-08-03T04:11:51.346Z,20.98
2022-08-03T04:14:56.756Z,21.04
2022-08-03T04:17:59.670Z,21.07
2022-08-03T04:21:05.839Z,21.14
2022-08-03T04:24:09.413Z,21.20
2022-08-03T04:27:14.085Z,21.24
2022-08-03T04:30:16.370Z,21.32
2022-08-03T04:33:19.986Z,21.36
2022-08-03T04:36:25.908Z,21.46
2022-08-03T04:39:31.381Z,21.51
2022-08-03T04:42:34.410Z,21.62
2022-08-03T04:45:37.887Z,21.67
2022-08-03T04:48:44.371Z,21.86
2022-08-03T04:51:49.121Z,21.89
2022-08-03T04:54:51.322Z,22.08
2022-08-03T04:57:53.674Z,22.07
2022-08-03T05:00:55.749Z,22.09
2022-08-03T05:03:58.128Z,22.19
2022-08-03T05:07:00.205Z,22.31
2022-08-03T05:10:15.797Z,22.54
2022-08-03T05:13:18.286Z,22.65
2022-08-03T05:16:20.642Z,22.79
2022-08-03T05:19:22.725Z,22.86
2022-08-03T05:22:25.066Z,23.02
2022-08-03T05:28:31.724Z,23.24
2022-08-03T05:31:33.858Z,23.43
2022-08-03T05:34:36.188Z,23.70
2022-08-03T05:37:38.284Z,23.90
2022-08-03T05:41:20.990Z,24.10
2022-08-03T05:44:20.605Z,24.21
2022-08-03T05:47:23.020Z,24.37
2022-08-03T05:50:25.083Z,24.49
2022-08-03T05:53:27.458Z,24.58
2022-08-03T05:56:29.551Z,24.67
2022-08-03T05:59:38.812Z,24.82
2022-08-03T06:02:41.231Z,24.91
2022-08-03T06:05:55.490Z,24.96
2022-08-03T06:09:02.575Z,25.03
2022-08-03T06:12:05.318Z,25.20
2022-08-03T06:15:08.070Z,25.37
2022-08-03T06:18:13.951Z,25.33
2022-08-03T06:21:16.395Z,25.43
2022-08-03T06:24:18.808Z,25.55
2022-08-03T06:27:29.358Z,25.59
2022-08-03T06:30:40.470Z,25.62
2022-08-03T06:34:31.051Z,25.64
2022-08-03T06:37:05.026Z,25.66
2022-08-03T06:40:07.594Z,25.73
2022-08-03T06:43:12.535Z,25.79
2022-08-03T06:46:14.927Z,25.82
2022-08-03T06:49:17.317Z,25.75
2022-08-03T06:52:37.566Z,25.80
2022-08-03T06:55:42.410Z,25.90
2022-08-03T06:58:44.673Z,26.04
2022-08-03T07:01:47.131Z,26.01
2022-08-03T07:04:49.302Z,25.94
2022-08-03T07:07:55.647Z,26.05
2022-08-03T07:10:57.798Z,26.09
2022-08-03T07:14:00.136Z,26.12
2022-08-03T07:17:04.657Z,26.23
2022-08-03T07:20:15.187Z,26.28
2022-08-03T07:23:19.263Z,26.38
2022-08-03T07:26:21.908Z,26.44
2022-08-03T07:29:23.977Z,26.48
2022-08-03T07:32:26.818Z,26.52
2022-08-03T07:35:28.918Z,26.60
2022-08-03T07:38:31.298Z,26.58
2022-08-03T07:41:33.545Z,26.63
2022-08-03T07:44:36.557Z,26.71
2022-08-03T07:47:38.633Z,26.70
2022-08-03T07:50:40.963Z,26.74
2022-08-03T07:53:47.295Z,26.76
2022-08-03T07:56:50.251Z,26.88
2022-08-03T08:00:01.835Z,26.98
2022-08-03T08:03:14.062Z,27.07
2022-08-03T08:06:16.529Z,27.03
2022-08-03T08:09:18.621Z,26.93
2022-08-03T08:12:21.137Z,27.00
2022-08-03T08:15:23.510Z,27.00
2022-08-03T08:18:25.836Z,26.97
2022-08-03T08:22:01.802Z,27.03
2022-08-03T08:24:50.769Z,27.01
2022-08-03T08:28:31.261Z,26.98
2022-08-03T08:31:17.044Z,26.98
2022-08-03T08:34:19.134Z,27.10
2022-08-03T08:37:21.534Z,27.12
2022-08-03T08:40:23.670Z,27.20
2022-08-03T08:43:26.018Z,27.11
2022-08-03T08:46:32.019Z,27.10
2022-08-03T08:49:39.730Z,27.12
2022-08-03T08:52:43.422Z,27.16
2022-08-03T08:55:59.548Z,27.25
2022-08-03T08:59:02.833Z,27.32
2022-08-03T09:02:06.082Z,27.38
2022-08-03T09:05:16.987Z,27.43
2022-08-03T09:08:19.603Z,27.49
2022-08-03T09:11:55.707Z,27.58
2022-08-03T09:15:07.447Z,27.54
2022-08-03T09:18:09.570Z,27.42
2022-08-03T09:21:32.037Z,27.43
2022-08-03T09:24:41.632Z,27.46
2022-08-03T09:27:46.419Z,27.54
2022-08-03T09:31:00.701Z,27.57
2022-08-03T09:34:08.298Z,27.66
2022-08-03T09:37:16.134Z,27.65
2022-08-03T09:40:34.603Z,27.66
2022-08-03T09:43:46.697Z,27.76
2022-08-03T09:46:54.930Z,27.80
2022-08-03T09:50:01.881Z,27.94
2022-08-03T09:53:04.283Z,27.95
2022-08-03T09:56:35.898Z,27.99
2022-08-03T09:59:31.950Z,28.04
2022-08-03T10:02:34.000Z,28.03
2022-08-03T10:05:36.322Z,28.03
2022-08-03T10:08:38.413Z,27.97
2022-08-03T10:11:42.644Z,27.91
2022-08-03T10:14:46.604Z,27.92
2022-08-03T10:17:49.261Z,27.97
2022-08-03T10:20:53.789Z,28.08
2022-08-03T10:23:56.782Z,28.16
2022-08-03T10:27:07.437Z,28.16
2022-08-03T10:30:11.750Z,28.22
2022-08-03T10:33:50.844Z,28.15
2022-08-03T10:36:55.706Z,28.28
2022-08-03T10:39:59.997Z,28.41
2022-08-03T10:43:25.975Z,28.44
2022-08-03T10:46:28.986Z,28.45
2022-08-03T10:49:34.313Z,28.46
2022-08-03T10:52:54.037Z,28.53
2022-08-03T10:56:14.886Z,28.43
2022-08-03T10:59:47.201Z,28.51
2022-08-03T11:03:09.370Z,28.57
2022-08-03T11:06:18.945Z,28.60
2022-08-03T11:09:21.306Z,28.68
2022-08-03T11:12:32.731Z,28.77
2022-08-03T11:15:35.982Z,28.73
2022-08-03T11:18:56.217Z,28.74
2022-08-03T11:21:59.072Z,28.71
2022-08-03T11:25:01.734Z,28.78
2022-08-03T11:28:28.211Z,28.83
2022-08-03T11:31:49.390Z,28.85
2022-08-03T11:35:09.050Z,28.85
2022-08-03T11:38:12.982Z,29.00
2022-08-03T11:41:33.338Z,29.03
2022-08-03T11:44:47.492Z,29.10
2022-08-03T11:47:53.952Z,29.07
2022-08-03T11:50:56.819Z,29.18
2022-08-03T11:54:04.489Z,29.31
2022-08-03T11:57:06.742Z,29.22
2022-08-03T12:00:30.464Z,29.23
2022-08-03T12:03:34.745Z,29.23
2022-08-03T12:06:55.165Z,29.26
2022-08-03T12:10:08.526Z,29.21
2022-08-03T12:14:26.937Z,29.18
2022-08-03T12:16:32.969Z,29.23
2022-08-03T12:19:44.670Z,29.32
2022-08-03T12:22:47.010Z,29.37
2022-08-03T12:25:49.580Z,29.38
2022-08-03T12:28:52.383Z,29.42
2022-08-03T12:31:55.930Z,29.40
2022-08-03T12:35:01.305Z,29.41
2022-08-03T12:38:04.075Z,29.47
2022-08-03T12:41:11.774Z,29.52
2022-08-03T12:44:13.904Z,29.56
2022-08-03T12:47:16.469Z,29.54
2022-08-03T12:50:31.322Z,29.48
2022-08-03T12:53:35.517Z,29.48
2022-08-03T12:57:00.162Z,29.38
2022-08-03T13:00:17.454Z,29.33
2022-08-03T13:03:42.702Z,29.38
2022-08-03T13:07:03.005Z,29.34
2022-08-03T13:10:08.135Z,29.30
2022-08-03T13:13:10.779Z,29.16
2022-08-03T13:16:18.769Z,29.18
2022-08-03T13:19:21.591Z,29.24
2022-08-03T13:22:25.795Z,29.28
2022-08-03T13:25:28.157Z,29.34
2022-08-03T13:28:30.247Z,29.36
2022-08-03T13:31:32.585Z,29.35
2022-08-03T13:34:34.834Z,29.46
2022-08-03T13:37:38.026Z,29.52
2022-08-03T13:40:41.825Z,29.63
2022-08-03T13:43:44.295Z,29.53
2022-08-03T13:46:49.184Z,29.46
2022-08-03T13:49:54.177Z,29.52
2022-08-03T13:53:02.690Z,29.54
2022-08-03T13:56:05.058Z,29.59
2022-08-03T13:59:07.147Z,29.70
2022-08-03T14:02:09.548Z,29.66
2022-08-03T14:05:11.937Z,29.63
2022-08-03T14:08:14.039Z,29.69
2022-08-03T14:11:17.526Z,29.90
2022-08-03T14:14:19.638Z,29.84
2022-08-03T14:17:23.263Z,29.84
2022-08-03T14:20:36.800Z,29.95
